Time;durP1;ratioP1;P1;durP2;ratioP2;P2;SDS_P1;SDS_P2;PMS_P1;PMS_P2;Temp;Humidity;BMP_temperature;BMP_pressure;BME280_temperature;BME280_humidity;BME280_pressure;Samples;Min_cycle;Max_cycle;Signal;HPM_P1;HPM_P2
2022/08/30 00:01:01;;;;;;;4.20;3.73;;;20.40;73.70;20.80;96734.00;;;;5094321;28;20221;-84
2022/08/30 00:01:55;;;;;;;3.53;3.00;;;20.40;73.60;20.80;96728.00;;;;5094337;28;20282;-84
2022/08/30 00:04:22;;;;;;;3.73;2.93;;;20.30;73.40;20.80;96725.00;;;;5094073;28;20218;-83
2022/08/30 00:06:49;;;;;;;3.63;3.23;;;20.30;73.40;20.80;96723.00;;;;5093638;28;20203;-84
2022/08/30 00:09:18;;;;;;;3.57;3.27;;;20.30;73.40;20.70;96718.00;;;;5094228;28;20223;-84
2022/08/30 00:11:45;;;;;;;3.63;3.33;;;20.30;73.30;20.70;96727.00;;;;5093790;28;20252;-84
2022/08/30 00:14:13;;;;;;;3.30;3.10;;;20.30;73.40;20.70;96727.00;;;;5094333;28;20211;-84
2022/08/30 00:16:40;;;;;;;3.20;3.00;;;20.20;73.40;20.60;96722.00;;;;5094919;28;20244;-84
2022/08/30 00:19:07;;;;;;;3.43;3.13;;;20.20;73.40;20.60;96724.00;;;;5093387;28;20611;-84
2022/08/30 00:21:35;;;;;;;3.80;3.13;;;20.10;73.40;20.60;96723.00;;;;5094376;28;20651;-84
2022/08/30 00:24:03;;;;;;;3.20;3.00;;;20.10;73.50;20.60;96730.00;;;;5094053;28;20203;-84
2022/08/30 00:26:32;;;;;;;3.60;3.10;;;20.10;73.70;20.50;96730.00;;;;5093838;28;20258;-84
2022/08/30 00:28:59;;;;;;;3.67;3.13;;;20.10;74.10;20.50;96728.00;;;;5093211;28;20196;-83
2022/08/30 00:31:26;;;;;;;4.00;3.60;;;20.00;74.20;20.50;96720.00;;;;5092607;28;20278;-84
2022/08/30 00:33:54;;;;;;;3.83;3.50;;;20.10;74.30;20.50;96729.00;;;;5073025;28;20227;-83
2022/08/30 00:36:21;;;;;;;3.50;3.30;;;20.00;74.10;20.40;96720.00;;;;5072687;28;20211;-84
2022/08/30 00:38:48;;;;;;;3.70;3.33;;;20.00;74.00;20.40;96721.00;;;;5072174;28;20200;-84
2022/08/30 00:41:15;;;;;;;4.10;3.77;;;20.00;74.00;20.40;96718.00;;;;5071511;28;20192;-84
2022/08/30 00:43:44;;;;;;;4.20;3.70;;;20.00;74.10;20.40;96720.00;;;;5072389;28;20622;-83
2022/08/30 00:46:13;;;;;;;3.17;2.93;;;20.00;74.20;20.30;96718.00;;;;5071601;28;20223;-85
2022/08/30 00:48:47;;;;;;;3.43;3.13;;;19.90;74.00;20.30;96719.00;;;;5071987;28;20297;-84
2022/08/30 00:51:17;;;;;;;3.50;3.20;;;19.90;74.00;20.30;96714.00;;;;5071810;28;20241;-84
2022/08/30 00:53:53;;;;;;;3.40;3.10;;;19.90;74.00;20.30;96718.00;;;;5072284;28;20224;-84
2022/08/30 00:56:22;;;;;;;3.80;3.50;;;19.80;74.00;20.20;96714.00;;;;5072768;28;20294;-84
2022/08/30 00:58:55;;;;;;;3.27;3.07;;;19.80;74.10;20.20;96715.00;;;;5072062;28;20218;-84
2022/08/30 01:01:23;;;;;;;3.87;3.33;;;19.80;74.50;20.20;96709.00;;;;5072114;28;20204;-84
2022/08/30 01:03:51;;;;;;;3.63;3.33;;;19.80;74.60;20.20;96701.00;;;;5071881;28;20200;-84
2022/08/30 01:06:19;;;;;;;3.87;3.40;;;19.80;74.70;20.20;96704.00;;;;5071190;28;20274;-84
2022/08/30 01:08:47;;;;;;;3.87;3.33;;;19.80;74.70;20.20;96710.00;;;;5071736;28;20257;-84
2022/08/30 01:11:18;;;;;;;3.97;3.57;;;19.80;74.70;20.20;96714.00;;;;5071747;28;20196;-85
2022/08/30 01:13:47;;;;;;;3.47;3.17;;;19.70;74.50;20.20;96710.00;;;;5074646;28;20645;-84
2022/08/30 01:16:16;;;;;;;4.20;3.83;;;19.70;74.60;20.20;96715.00;;;;5075377;28;20284;-84
2022/08/30 01:18:44;;;;;;;4.50;3.40;;;19.70;74.90;20.20;96713.00;;;;5074477;28;20664;-84
2022/08/30 01:21:21;;;;;;;4.77;4.27;;;19.70;75.10;20.20;96709.00;;;;5075163;28;20245;-84
2022/08/30 01:23:53;;;;;;;5.23;3.93;;;19.70;75.40;20.20;96706.00;;;;5074459;28;20607;-84
2022/08/30 01:26:22;;;;;;;3.80;3.50;;;19.70;75.50;20.20;96701.00;;;;5074571;28;20202;-85
2022/08/30 01:28:57;;;;;;;4.07;3.77;;;19.70;75.50;20.20;96709.00;;;;5075002;28;20605;-84
2022/08/30 01:31:24;;;;;;;4.13;3.57;;;19.70;75.50;20.20;96708.00;;;;5074597;28;20199;-84
2022/08/30 01:33:51;;;;;;;4.03;3.63;;;19.70;75.40;20.20;96712.00;;;;5074630;28;20697;-85
2022/08/30 01:36:20;;;;;;;4.60;3.50;;;19.70;75.30;20.20;96710.00;;;;5075016;28;20232;-85
2022/08/30 01:38:53;;;;;;;6.57;3.73;;;19.70;75.20;20.20;96706.00;;;;5075657;28;20207;-84
2022/08/30 01:41:24;;;;;;;4.07;3.77;;;19.70;75.10;20.20;96700.00;;;;5075634;28;20184;-84
2022/08/30 01:43:55;;;;;;;3.47;3.20;;;19.70;75.00;20.20;96707.00;;;;5075574;28;20229;-85
2022/08/30 01:46:27;;;;;;;3.40;3.10;;;19.70;74.90;20.10;96701.00;;;;5075353;28;20718;-84
2022/08/30 01:48:57;;;;;;;3.40;3.20;;;19.70;74.90;20.10;96701.00;;;;5075648;28;20250;-85
2022/08/30 01:51:27;;;;;;;3.47;3.17;;;19.70;74.80;20.10;96710.00;;;;5075301;28;20196;-84
2022/08/30 01:53:58;;;;;;;5.50;3.87;;;19.60;74.60;20.10;96707.00;;;;5074647;28;20249;-84
2022/08/30 01:56:28;;;;;;;3.37;3.17;;;19.60;74.50;20.00;96714.00;;;;5072817;28;20269;-82
2022/08/30 01:58:56;;;;;;;3.87;3.57;;;19.60;74.50;20.00;96711.00;;;;5072203;28;20279;-86
2022/08/30 02:01:27;;;;;;;3.43;3.20;;;19.60;74.40;20.00;96709.00;;;;5072444;28;20227;-86
2022/08/30 02:03:56;;;;;;;3.50;3.20;;;19.50;74.30;19.90;96720.00;;;;5092041;28;20292;-86
2022/08/30 02:06:24;;;;;;;3.43;3.10;;;19.50;74.30;19.90;96707.00;;;;5091181;28;20721;-86
2022/08/30 02:08:52;;;;;;;3.00;2.80;;;19.50;74.30;19.90;96711.00;;;;5091799;28;20277;-86
2022/08/30 02:11:20;;;;;;;3.87;3.57;;;19.40;74.40;19.80;96713.00;;;;5091509;28;20191;-86
2022/08/30 02:13:48;;;;;;;3.87;3.57;;;19.40;74.60;19.80;96711.00;;;;5091337;28;20272;-86
2022/08/30 02:16:21;;;;;;;3.77;3.47;;;19.40;74.90;19.80;96720.00;;;;5107719;22;20207;-83
2022/08/30 02:18:49;;;;;;;3.67;3.37;;;19.40;75.20;19.80;96723.00;;;;5095411;28;20203;-83
2022/08/30 02:21:17;;;;;;;4.83;4.43;;;19.40;75.40;19.80;96718.00;;;;5095340;28;20214;-83
2022/08/30 02:23:45;;;;;;;6.47;3.70;;;19.40;75.50;19.80;96722.00;;;;5099763;28;20203;-83
2022/08/30 02:26:14;;;;;;;3.73;3.43;;;19.40;75.40;19.80;96721.00;;;;5097746;28;20195;-83
2022/08/30 02:28:43;;;;;;;3.67;3.37;;;19.40;75.20;19.80;96715.00;;;;5099059;28;20199;-84
2022/08/30 02:31:11;;;;;;;5.03;3.83;;;19.40;75.10;19.70;96715.00;;;;5098895;28;20285;-83
2022/08/30 02:33:38;;;;;;;4.00;3.20;;;19.30;75.10;19.70;96716.00;;;;5079961;28;20224;-84
2022/08/30 02:36:07;;;;;;;3.83;3.43;;;19.30;75.00;19.70;96712.00;;;;5078120;28;20199;-84
2022/08/30 02:38:35;;;;;;;7.07;4.40;;;19.30;75.10;19.70;96717.00;;;;5078798;28;20935;-83
2022/08/30 02:41:02;;;;;;;4.43;4.13;;;19.30;75.20;19.70;96706.00;;;;5078744;28;20219;-84
2022/08/30 02:43:30;;;;;;;4.00;3.70;;;19.20;75.40;19.70;96709.00;;;;5079703;28;20660;-84
2022/08/30 02:45:58;;;;;;;6.03;4.17;;;19.20;75.50;19.70;96711.00;;;;5078760;28;20196;-84
2022/08/30 02:48:25;;;;;;;5.43;3.90;;;19.20;75.50;19.70;96712.00;;;;5078551;28;20224;-84
2022/08/30 02:50:53;;;;;;;4.77;4.37;;;19.20;75.50;19.60;96714.00;;;;5080073;28;20315;-84
2022/08/30 02:53:22;;;;;;;4.33;4.00;;;19.20;75.70;19.70;96711.00;;;;5078919;28;20216;-83
2022/08/30 02:55:50;;;;;;;6.30;4.10;;;19.20;75.90;19.70;96710.00;;;;5079302;28;20640;-83
2022/08/30 02:58:17;;;;;;;4.37;4.07;;;19.20;75.80;19.70;96720.00;;;;5078309;28;20637;-83
2022/08/30 03:00:44;;;;;;;5.03;3.70;;;19.20;75.70;19.60;96721.00;;;;5077816;28;20224;-83
2022/08/30 03:03:13;;;;;;;4.20;3.90;;;19.20;75.60;19.60;96716.00;;;;5078186;28;20659;-83
2022/08/30 03:05:40;;;;;;;4.43;4.00;;;19.20;75.50;19.60;96712.00;;;;5077477;28;20286;-83
2022/08/30 03:08:08;;;;;;;4.57;4.03;;;19.20;75.40;19.60;96713.00;;;;5078483;28;20257;-84
2022/08/30 03:10:37;;;;;;;3.70;3.40;;;19.10;75.40;19.60;96711.00;;;;5077967;28;20289;-84
2022/08/30 03:13:06;;;;;;;4.10;3.80;;;19.10;75.40;19.50;96719.00;;;;5078206;28;20243;-84
2022/08/30 03:15:35;;;;;;;4.27;3.97;;;19.10;75.40;19.50;96716.00;;;;5077220;28;20196;-84
2022/08/30 03:18:03;;;;;;;4.10;3.80;;;19.10;75.30;19.50;96719.00;;;;5078042;28;20584;-84
2022/08/30 03:20:32;;;;;;;4.07;3.73;;;19.10;75.30;19.40;96719.00;;;;5078179;28;20902;-84
2022/08/30 03:22:59;;;;;;;3.87;3.57;;;19.00;75.20;19.40;96720.00;;;;5078591;28;20206;-83
2022/08/30 03:25:28;;;;;;;3.87;3.57;;;19.00;75.30;19.40;96719.00;;;;5078217;28;20664;-83
2022/08/30 03:27:55;;;;;;;5.47;4.13;;;19.00;75.30;19.40;96723.00;;;;5078261;28;20200;-84
2022/08/30 03:30:22;;;;;;;4.40;3.90;;;19.00;75.30;19.40;96721.00;;;;5077840;28;20227;-84
2022/08/30 03:32:50;;;;;;;4.50;4.17;;;18.90;75.30;19.30;96717.00;;;;5077582;28;20208;-84
2022/08/30 03:35:17;;;;;;;4.70;4.30;;;18.90;75.30;19.30;96724.00;;;;5077330;28;20200;-84
2022/08/30 03:37:48;;;;;;;4.43;4.03;;;18.90;75.30;19.30;96720.00;;;;5078231;28;20199;-83
2022/08/30 03:40:18;;;;;;;5.10;4.03;;;18.90;75.30;19.20;96725.00;;;;5078248;28;20220;-84
2022/08/30 03:42:47;;;;;;;4.43;4.03;;;18.80;75.20;19.20;96721.00;;;;5078259;28;20180;-83
2022/08/30 03:45:18;;;;;;;5.77;4.40;;;18.80;75.30;19.20;96724.00;;;;5076467;28;20235;-83
2022/08/30 03:47:45;;;;;;;4.27;3.97;;;18.80;75.60;19.20;96717.00;;;;5077126;28;20741;-83
2022/08/30 03:50:15;;;;;;;5.43;3.87;;;18.80;75.70;19.10;96717.00;;;;5077974;28;20216;-83
2022/08/30 03:52:44;;;;;;;4.57;4.17;;;18.80;75.70;19.10;96713.00;;;;5077386;28;20685;-83
2022/08/30 03:55:13;;;;;;;5.10;3.73;;;18.70;75.60;19.10;96712.00;;;;5076781;28;20217;-83
2022/08/30 03:57:41;;;;;;;4.17;3.87;;;18.70;75.60;19.10;96705.00;;;;5076902;28;20196;-83
2022/08/30 04:00:11;;;;;;;4.40;4.00;;;18.70;75.70;19.10;96706.00;;;;5077197;28;20216;-83
2022/08/30 04:02:38;;;;;;;4.50;4.10;;;18.70;75.80;19.00;96705.00;;;;5087780;28;20257;-84
2022/08/30 04:05:07;;;;;;;4.10;3.63;;;18.70;75.80;19.00;96704.00;;;;5096419;28;20861;-83
2022/08/30 04:07:35;;;;;;;6.33;4.27;;;18.70;75.80;19.00;96712.00;;;;5096818;28;20199;-83
2022/08/30 04:10:07;;;;;;;4.27;3.87;;;18.60;75.80;19.00;96713.00;;;;5097488;28;20756;-84
2022/08/30 04:12:36;;;;;;;5.70;4.10;;;18.60;75.90;19.00;96720.00;;;;5097619;28;20268;-84
2022/08/30 04:15:06;;;;;;;5.50;4.37;;;18.60;76.10;19.00;96716.00;;;;5096704;28;20645;-84
2022/08/30 04:17:33;;;;;;;5.20;4.70;;;18.60;76.30;19.00;96718.00;;;;5097120;28;20219;-83
2022/08/30 04:20:01;;;;;;;5.77;5.27;;;18.60;76.40;19.00;96719.00;;;;5097384;28;20272;-83
2022/08/30 04:22:28;;;;;;;4.77;4.37;;;18.60;76.40;19.00;96721.00;;;;5096511;28;20199;-83
2022/08/30 04:24:55;;;;;;;7.50;5.17;;;18.60;76.50;18.90;96716.00;;;;5096429;28;20286;-83
2022/08/30 04:27:22;;;;;;;4.47;4.13;;;18.60;76.30;18.90;96720.00;;;;5096316;28;20678;-83
2022/08/30 04:29:52;;;;;;;6.70;4.50;;;18.60;76.40;18.90;96721.00;;;;5096942;28;20223;-84
2022/08/30 04:32:20;;;;;;;5.23;4.77;;;18.60;76.40;18.90;96724.00;;;;5088625;28;20200;-84
2022/08/30 04:34:47;;;;;;;4.63;4.33;;;18.60;76.50;18.90;96731.00;;;;5077847;28;20277;-84
2022/08/30 04:37:17;;;;;;;4.53;4.13;;;18.60;76.50;18.90;96734.00;;;;5076492;28;20218;-83
2022/08/30 04:39:47;;;;;;;4.97;4.60;;;18.60;77.30;18.90;96733.00;;;;5076636;28;20293;-84
2022/08/30 04:42:20;;;;;;;5.00;4.47;;;18.60;76.80;19.00;96734.00;;;;5077052;28;20257;-84
2022/08/30 04:44:52;;;;;;;5.23;4.73;;;18.60;77.00;19.00;96740.00;;;;5076224;28;20211;-84
2022/08/30 04:47:28;;;;;;;5.07;4.67;;;18.60;77.10;19.00;96742.00;;;;5076108;28;20204;-84
2022/08/30 04:49:58;;;;;;;4.67;4.27;;;18.60;77.10;19.00;96749.00;;;;5076994;28;20234;-84
2022/08/30 04:52:30;;;;;;;4.70;4.23;;;18.60;77.20;19.10;96749.00;;;;5076859;28;20263;-84
2022/08/30 04:55:10;;;;;;;4.37;3.97;;;18.60;77.20;19.10;96749.00;;;;5075469;28;20413;-84
2022/08/30 04:57:44;;;;;;;4.63;4.23;;;18.60;77.20;19.10;96752.00;;;;5075535;28;20204;-84
2022/08/30 05:00:19;;;;;;;5.87;4.90;;;18.60;77.00;19.10;96759.00;;;;5075828;28;20749;-84
2022/08/30 05:02:47;;;;;;;4.47;4.03;;;18.60;77.60;19.10;96754.00;;;;5087926;28;20210;-84
2022/08/30 05:07:56;;;;;;;4.93;4.53;;;18.60;76.70;19.10;96772.00;;;;5081744;28;20191;-83
2022/08/30 05:10:26;;;;;;;4.90;4.50;;;18.60;76.70;19.10;96773.00;;;;5094771;28;20951;-83
2022/08/30 05:12:53;;;;;;;4.73;4.30;;;18.60;76.70;19.10;96769.00;;;;5094982;28;20198;-84
2022/08/30 05:15:25;;;;;;;5.90;4.90;;;18.60;76.80;19.10;96769.00;;;;5094859;28;20272;-84
2022/08/30 05:17:52;;;;;;;5.30;4.80;;;18.60;76.90;19.10;96777.00;;;;5094061;28;20302;-84
2022/08/30 05:20:20;;;;;;;5.30;4.90;;;18.60;76.80;19.10;96774.00;;;;5094755;28;20215;-83
2022/08/30 05:22:49;;;;;;;6.67;5.80;;;18.60;77.00;19.10;96781.00;;;;5094704;28;20238;-83
2022/08/30 05:25:18;;;;;;;5.37;4.87;;;18.60;77.20;19.10;96780.00;;;;5094328;28;20199;-84
2022/08/30 05:27:46;;;;;;;5.30;4.80;;;18.70;77.50;19.10;96782.00;;;;5095072;28;20195;-84
2022/08/30 05:30:15;;;;;;;5.10;4.60;;;18.70;77.70;19.10;96781.00;;;;5094926;28;20264;-83
2022/08/30 05:32:44;;;;;;;5.20;4.80;;;18.70;77.80;19.20;96784.00;;;;5094569;28;20556;-84
2022/08/30 05:35:14;;;;;;;5.40;5.00;;;18.70;78.00;19.20;96789.00;;;;5094514;28;20687;-84
2022/08/30 05:37:42;;;;;;;5.77;5.03;;;18.70;78.10;19.20;96784.00;;;;5094775;28;20195;-84
2022/08/30 05:40:11;;;;;;;5.80;5.20;;;18.70;78.10;19.30;96784.00;;;;5095236;28;20211;-84
2022/08/30 05:42:40;;;;;;;5.77;5.20;;;18.80;78.40;19.30;96784.00;;;;5094577;28;20227;-84
2022/08/30 05:45:09;;;;;;;5.60;5.10;;;18.80;78.70;19.30;96777.00;;;;5094726;28;20610;-84
2022/08/30 05:47:37;;;;;;;5.43;5.00;;;18.80;78.90;19.40;96786.00;;;;5094857;28;20231;-86
2022/08/30 05:50:08;;;;;;;12.37;5.47;;;18.90;79.20;19.40;96783.00;;;;5094242;28;20219;-85
2022/08/30 05:52:36;;;;;;;6.17;5.63;;;18.90;79.30;19.50;96785.00;;;;5094235;28;20191;-86
2022/08/30 05:55:06;;;;;;;6.43;5.50;;;18.90;79.40;19.50;96789.00;;;;5093663;28;20465;-84
2022/08/30 05:57:34;;;;;;;6.43;5.93;;;19.00;79.80;19.50;96787.00;;;;5101690;28;20233;-84
2022/08/30 06:00:02;;;;;;;7.23;5.37;;;19.10;80.10;19.60;96788.00;;;;5101206;28;20230;-84
2022/08/30 06:02:29;;;;;;;6.57;5.97;;;19.10;80.20;19.60;96788.00;;;;5091844;28;20644;-85
2022/08/30 06:04:56;;;;;;;7.90;6.00;;;19.10;80.20;19.70;96784.00;;;;5079784;28;20204;-84
2022/08/30 06:07:25;;;;;;;7.37;6.67;;;19.20;80.30;19.70;96784.00;;;;5080628;28;20676;-84
2022/08/30 06:09:52;;;;;;;7.70;7.00;;;19.20;80.40;19.80;96784.00;;;;5080846;28;20418;-84
2022/08/30 06:12:20;;;;;;;7.33;6.63;;;19.30;80.40;19.90;96786.00;;;;5081009;28;20203;-83
2022/08/30 06:14:47;;;;;;;8.10;7.20;;;19.40;80.40;20.00;96791.00;;;;5081229;28;20687;-84
2022/08/30 06:17:14;;;;;;;11.63;7.67;;;19.40;80.40;20.00;96793.00;;;;5081667;28;20208;-84
2022/08/30 06:19:44;;;;;;;9.17;7.40;;;19.50;80.50;20.10;96801.00;;;;5081120;28;20212;-83
2022/08/30 06:22:17;;;;;;;7.80;7.10;;;19.50;80.50;20.20;96793.00;;;;5079758;28;20223;-84
2022/08/30 06:24:49;;;;;;;7.13;6.43;;;19.60;80.50;20.20;96795.00;;;;5079474;28;20201;-85
2022/08/30 06:27:21;;;;;;;8.00;7.17;;;19.70;80.70;20.30;96791.00;;;;5080237;28;20207;-84
2022/08/30 06:29:52;;;;;;;7.67;6.97;;;19.70;80.70;20.30;96793.00;;;;5080323;28;20238;-84
2022/08/30 06:32:20;;;;;;;8.30;7.40;;;19.80;80.70;20.40;96784.00;;;;5081868;28;20656;-84
2022/08/30 06:34:47;;;;;;;6.97;6.37;;;19.80;80.60;20.50;96790.00;;;;5083245;28;20217;-83
2022/08/30 06:37:15;;;;;;;7.43;6.73;;;19.90;80.60;20.60;96786.00;;;;5083055;28;20309;-83
2022/08/30 06:39:42;;;;;;;8.13;7.37;;;20.00;80.70;20.60;96787.00;;;;5082703;28;20224;-83
2022/08/30 06:42:11;;;;;;;7.87;7.17;;;20.00;80.60;20.70;96789.00;;;;5082938;28;20204;-83
2022/08/30 06:44:39;;;;;;;7.90;7.20;;;20.10;80.70;20.80;96806.00;;;;5081612;28;20200;-84
2022/08/30 06:47:06;;;;;;;7.50;6.80;;;20.20;80.80;20.90;96799.00;;;;5081535;28;20286;-83
2022/08/30 06:49:34;;;;;;;7.37;6.67;;;20.30;80.80;20.90;96793.00;;;;5082157;28;20259;-83
2022/08/30 06:52:04;;;;;;;9.20;6.60;;;20.30;80.60;21.00;96802.00;;;;5082044;28;20241;-83
2022/08/30 06:54:39;;;;;;;7.93;7.20;;;20.40;80.60;21.10;96796.00;;;;5081163;28;20238;-84
2022/08/30 06:57:06;;;;;;;8.73;7.87;;;20.50;80.80;21.20;96793.00;;;;5081465;28;20658;-84
2022/08/30 06:59:37;;;;;;;8.23;7.47;;;20.50;80.80;21.20;96802.00;;;;5081853;28;20231;-84
2022/08/30 07:02:11;;;;;;;8.70;7.90;;;20.60;80.80;21.30;96802.00;;;;5079569;28;21057;-84
2022/08/30 07:04:38;;;;;;;8.90;8.00;;;20.70;80.80;21.40;96807.00;;;;5079638;28;20681;-83
2022/08/30 07:07:06;;;;;;;7.70;6.97;;;20.80;80.80;21.50;96803.00;;;;5081541;28;20249;-83
2022/08/30 07:09:34;;;;;;;7.80;7.03;;;20.80;80.80;21.60;96807.00;;;;5079917;28;20264;-84
2022/08/30 07:12:05;;;;;;;8.30;7.60;;;20.90;80.90;21.70;96813.00;;;;5081150;28;20524;-83
2022/08/30 07:14:34;;;;;;;7.90;7.20;;;21.00;81.10;21.80;96810.00;;;;5078799;28;20203;-84
2022/08/30 07:17:01;;;;;;;8.77;7.27;;;21.10;81.20;21.90;96806.00;;;;5078377;28;20209;-84
2022/08/30 07:19:27;;;;;;;8.43;7.63;;;21.20;81.40;22.00;96808.00;;;;5078229;28;20227;-84
2022/08/30 07:21:54;;;;;;;8.10;7.33;;;21.30;81.30;22.20;96815.00;;;;5078493;28;20202;-84
2022/08/30 07:24:22;;;;;;;8.63;7.77;;;21.40;81.20;22.30;96805.00;;;;5078208;28;20249;-84
2022/08/30 07:26:50;;;;;;;8.13;7.43;;;21.50;82.00;22.50;96810.00;;;;5079132;28;20200;-84
2022/08/30 07:29:19;;;;;;;8.83;7.47;;;21.60;81.30;22.70;96812.00;;;;5077511;28;20285;-84
2022/08/30 07:31:49;;;;;;;8.03;7.23;;;21.80;81.40;22.80;96809.00;;;;5077018;28;20199;-84
2022/08/30 07:34:17;;;;;;;7.77;7.10;;;21.90;81.30;23.00;96816.00;;;;5076091;28;20235;-84
2022/08/30 07:36:44;;;;;;;8.97;7.53;;;22.00;81.30;23.20;96819.00;;;;5076472;28;20211;-84
2022/08/30 07:39:12;;;;;;;9.07;8.20;;;22.20;81.10;23.30;96816.00;;;;5075141;28;20246;-84
2022/08/30 07:41:43;;;;;;;9.13;8.23;;;22.30;81.00;23.50;96809.00;;;;5075681;28;20200;-84
2022/08/30 07:44:11;;;;;;;8.40;7.60;;;22.50;80.90;23.60;96818.00;;;;5077026;28;20295;-83
2022/08/30 07:46:40;;;;;;;8.23;7.50;;;22.60;80.80;23.80;96820.00;;;;5076950;28;20287;-83
2022/08/30 07:49:10;;;;;;;8.73;7.23;;;22.70;80.50;23.90;96817.00;;;;5076752;28;20223;-83
2022/08/30 07:51:38;;;;;;;7.53;6.73;;;22.90;80.40;24.10;96813.00;;;;5075976;28;20191;-84
2022/08/30 07:54:06;;;;;;;7.67;6.97;;;23.00;80.30;24.20;96810.00;;;;5074407;28;20710;-84
2022/08/30 07:56:33;;;;;;;7.17;6.57;;;23.20;80.20;24.40;96805.00;;;;5074614;28;20748;-83
2022/08/30 07:59:01;;;;;;;7.47;6.77;;;23.30;80.00;24.50;96807.00;;;;5074596;28;20256;-84
2022/08/30 08:01:28;;;;;;;7.47;6.77;;;23.40;79.40;24.70;96803.00;;;;5075524;28;20218;-84
2022/08/30 08:03:58;;;;;;;8.17;7.47;;;23.60;79.60;24.90;96817.00;;;;5095433;28;20258;-83
2022/08/30 08:06:33;;;;;;;7.17;6.47;;;23.70;79.30;25.00;96817.00;;;;5094521;28;20193;-84
2022/08/30 08:09:11;;;;;;;6.40;5.80;;;23.90;79.10;25.20;96810.00;;;;5094997;28;20199;-84
2022/08/30 08:11:40;;;;;;;6.57;6.07;;;24.00;78.60;25.30;96809.00;;;;5094910;28;20652;-84
2022/08/30 08:14:08;;;;;;;5.87;5.37;;;24.20;78.40;25.50;96810.00;;;;5093374;28;20658;-84
2022/08/30 08:19:07;;;;;;;7.20;6.50;;;24.50;78.20;25.80;96809.00;;;;5071381;28;20227;-84
2022/08/30 08:21:37;;;;;;;7.13;6.43;;;24.60;77.90;25.90;96809.00;;;;5074322;28;20203;-83
2022/08/30 08:24:05;;;;;;;6.80;5.90;;;24.70;77.50;26.10;96815.00;;;;5074027;28;20207;-84
2022/08/30 08:26:36;;;;;;;6.20;5.70;;;24.90;77.50;26.20;96818.00;;;;5073433;28;20660;-84
2022/08/30 08:29:04;;;;;;;6.47;5.87;;;25.10;77.30;26.40;96812.00;;;;5073652;28;20751;-83
2022/08/30 08:31:31;;;;;;;6.17;5.67;;;25.20;77.10;26.50;96811.00;;;;5073457;28;20249;-84
2022/08/30 08:33:59;;;;;;;6.03;5.53;;;25.30;76.80;26.70;96810.00;;;;5073647;28;20215;-84
2022/08/30 08:36:29;;;;;;;5.70;5.27;;;25.40;76.80;26.80;96818.00;;;;5073829;28;20268;-84
2022/08/30 08:39:06;;;;;;;6.10;5.60;;;25.60;76.60;27.00;96819.00;;;;5074002;28;20277;-84
2022/08/30 08:41:55;;;;;;;6.10;5.50;;;25.70;76.00;27.10;96816.00;;;;5072846;28;20543;-85
2022/08/30 08:44:49;;;;;;;5.33;4.93;;;25.90;75.70;27.30;96813.00;;;;5072241;28;20191;-84
2022/08/30 08:47:29;;;;;;;5.63;4.80;;;26.00;75.50;27.40;96819.00;;;;5073439;28;20912;-84
2022/08/30 08:50:06;;;;;;;5.63;5.13;;;26.20;75.00;27.60;96817.00;;;;5072513;28;20220;-84
2022/08/30 08:55:46;;;;;;;5.27;4.13;;;26.50;74.00;28.00;96819.00;;;;5074356;28;20314;-84
2022/08/30 08:58:24;;;;;;;4.73;4.37;;;26.60;73.70;28.20;96815.00;;;;5073919;28;20268;-85
2022/08/30 09:00:52;;;;;;;4.20;3.90;;;26.80;73.20;28.30;96815.00;;;;5074607;28;20262;-84
2022/08/30 09:03:23;;;;;;;4.30;4.00;;;26.90;73.10;28.50;96820.00;;;;5073878;28;20202;-84
2022/08/30 09:05:52;;;;;;;4.30;4.00;;;27.10;72.60;28.70;96817.00;;;;5073195;28;20231;-84
2022/08/30 09:08:22;;;;;;;4.50;4.17;;;27.20;72.50;28.90;96817.00;;;;5074044;28;20751;-84
2022/08/30 09:10:57;;;;;;;4.47;4.17;;;27.40;72.20;29.00;96828.00;;;;5073241;28;20255;-84
2022/08/30 09:13:26;;;;;;;5.05;3.78;;;27.60;71.20;29.20;96825.00;;;;5072744;28;20552;-85
2022/08/30 09:16:06;;;;;;;3.50;3.13;;;27.70;70.80;29.40;96829.00;;;;5070519;28;20440;-85
2022/08/30 09:18:49;;;;;;;3.47;3.17;;;27.80;69.90;29.60;96825.00;;;;5072979;28;20504;-84
2022/08/30 09:21:27;;;;;;;4.00;3.70;;;28.10;69.20;29.70;96821.00;;;;5073433;28;20656;-84
2022/08/30 09:24:09;;;;;;;4.03;3.72;;;28.20;68.50;29.90;96820.00;;;;5072937;28;20249;-85
2022/08/30 09:26:44;;;;;;;4.30;3.47;;;28.30;68.60;30.00;96822.00;;;;5070553;28;20199;-85
2022/08/30 09:29:18;;;;;;;4.30;3.90;;;28.50;68.90;30.10;96815.00;;;;5073439;28;20710;-85
2022/08/30 09:31:50;;;;;;;4.45;4.05;;;28.60;67.50;30.20;96820.00;;;;5073774;28;20286;-85
2022/08/30 09:34:20;;;;;;;4.18;3.75;;;28.70;67.20;30.40;96817.00;;;;5074865;28;20203;-84
2022/08/30 09:36:52;;;;;;;5.88;4.97;;;28.90;66.60;30.50;96817.00;;;;5057155;28;20244;-84
2022/08/30 09:39:28;;;;;;;4.78;4.38;;;29.00;65.40;30.60;96818.00;;;;5054688;28;20228;-84
2022/08/30 09:42:14;;;;;;;4.28;3.97;;;29.10;65.00;30.70;96815.00;;;;5053778;28;20204;-84
2022/08/30 09:44:41;;;;;;;3.92;3.40;;;29.30;63.30;30.80;96813.00;;;;5054743;28;20177;-84
2022/08/30 09:47:21;;;;;;;3.85;3.55;;;29.40;64.80;30.90;96812.00;;;;5054447;28;20208;-84
2022/08/30 09:50:21;;;;;;;4.25;3.95;;;29.50;63.50;31.10;96801.00;;;;5053573;28;20244;-84
2022/08/30 09:53:08;;;;;;;3.83;3.35;;;29.60;61.60;31.20;96806.00;;;;5052431;28;20592;-84
2022/08/30 09:55:58;;;;;;;4.38;3.60;;;29.70;62.40;31.30;96799.00;;;;5059485;28;20211;-84
2022/08/30 09:58:58;;;;;;;3.80;3.50;;;29.90;60.40;31.50;96799.00;;;;5072622;28;20547;-84
2022/08/30 10:01:39;;;;;;;3.28;3.05;;;30.00;61.20;31.60;96797.00;;;;5071550;28;20196;-85
2022/08/30 10:04:19;;;;;;;4.25;3.45;;;30.20;62.70;31.80;96801.00;;;;5071413;28;20675;-85
2022/08/30 10:06:54;;;;;;;2.85;2.65;;;30.30;60.40;31.90;96795.00;;;;5054199;28;20242;-84
2022/08/30 10:09:33;;;;;;;3.25;2.95;;;30.50;59.80;32.00;96798.00;;;;5053086;28;20269;-84
2022/08/30 10:12:12;;;;;;;2.53;2.40;;;30.60;58.40;32.20;96794.00;;;;5053312;28;20216;-84
2022/08/30 10:15:06;;;;;;;3.25;3.05;;;30.80;58.60;32.30;96790.00;;;;5054345;28;20220;-83
2022/08/30 10:17:53;;;;;;;2.78;2.58;;;31.00;58.30;32.40;96784.00;;;;5072997;28;20218;-84
2022/08/30 10:20:29;;;;;;;3.63;3.33;;;31.10;58.50;32.50;96785.00;;;;5071436;28;20219;-84
2022/08/30 10:23:08;;;;;;;3.95;3.42;;;31.20;59.00;32.70;96780.00;;;;5072931;28;20633;-84
2022/08/30 10:28:34;;;;;;;3.08;2.88;;;31.50;58.20;32.90;96780.00;;;;5069561;28;20614;-84
2022/08/30 10:31:11;;;;;;;4.30;3.15;;;31.70;58.10;32.90;96777.00;;;;5065133;28;20269;-84
2022/08/30 10:33:47;;;;;;;3.50;3.20;;;31.80;57.90;33.10;96777.00;;;;5060554;28;20207;-84
2022/08/30 10:36:16;;;;;;;2.90;2.70;;;32.00;57.80;33.10;96776.00;;;;5057895;28;20220;-85
2022/08/30 10:38:49;;;;;;;2.58;2.38;;;32.00;57.40;33.20;96766.00;;;;5064141;28;20720;-85
2022/08/30 10:41:28;;;;;;;3.50;2.67;;;32.20;56.70;33.30;96763.00;;;;5073361;28;20184;-84
2022/08/30 10:44:03;;;;;;;2.90;2.50;;;32.30;54.80;33.30;96765.00;;;;5075492;28;20657;-84
2022/08/30 10:46:39;;;;;;;2.50;2.38;;;32.40;55.80;33.40;96762.00;;;;5076359;28;20207;-84
2022/08/30 10:49:16;;;;;;;2.80;2.60;;;32.50;54.10;33.40;96760.00;;;;5076087;28;20239;-84
2022/08/30 10:51:53;;;;;;;2.50;2.40;;;32.50;53.50;33.30;96762.00;;;;5075798;28;20245;-84
2022/08/30 10:54:34;;;;;;;2.40;2.20;;;32.50;52.90;33.20;96762.00;;;;5076415;28;20184;-85
2022/08/30 10:57:02;;;;;;;2.38;2.15;;;32.50;53.50;33.10;96756.00;;;;5076502;28;20204;-85
2022/08/30 10:59:44;;;;;;;3.58;2.47;;;32.50;53.70;33.00;96757.00;;;;5076071;28;20243;-85
2022/08/30 11:02:53;;;;;;;2.50;2.40;;;32.40;52.90;32.90;96754.00;;;;5068051;28;20200;-84
2022/08/30 11:05:47;;;;;;;2.03;1.92;;;32.30;52.70;32.80;96755.00;;;;5023724;28;20702;-84
2022/08/30 11:08:40;;;;;;;2.58;2.03;;;32.20;51.70;32.60;96751.00;;;;5055468;28;20196;-83
2022/08/30 11:11:24;;;;;;;3.35;2.40;;;32.10;51.10;32.40;96752.00;;;;5056187;28;20646;-84
2022/08/30 11:13:52;;;;;;;4.20;2.60;;;32.00;51.20;32.30;96751.00;;;;5058676;28;20611;-83
2022/08/30 11:16:20;;;;;;;2.03;1.90;;;31.80;52.50;32.20;96748.00;;;;5059538;28;20327;-83
2022/08/30 11:18:53;;;;;;;2.08;1.98;;;31.70;51.90;32.10;96751.00;;;;5059597;28;20216;-83
2022/08/30 11:21:33;;;;;;;2.60;2.40;;;31.60;51.60;32.10;96752.00;;;;5058760;28;20250;-82